sensor_id;sensor_type;location;lat;lon;timestamp;temperature;humidity
12049;DHT22;6085;49.452;8.502;2022-12-18T00:03:27;-6.80;99.90
12049;DHT22;6085;49.452;8.502;2022-12-18T00:07:31;-6.80;99.90
12049;DHT22;6085;49.452;8.502;2022-12-18T00:11:32;-6.80;99.90
12049;DHT22;6085;49.452;8.502;2022-12-18T00:15:34;-6.80;99.90
12049;DHT22;6085;49.452;8.502;2022-12-18T00:19:36;-6.90;99.90
12049;DHT22;6085;49.452;8.502;2022-12-18T00:23:43;-6.90;99.90
12049;DHT22;6085;49.452;8.502;2022-12-18T00:27:45;-6.90;99.90
12049;DHT22;6085;49.452;8.502;2022-12-18T00:31:47;-7.00;99.90
12049;DHT22;6085;49.452;8.502;2022-12-18T00:35:49;-7.00;99.90
12049;DHT22;6085;49.452;8.502;2022-12-18T00:39:52;-7.00;99.90
12049;DHT22;6085;49.452;8.502;2022-12-18T00:43:54;-7.10;99.90
12049;DHT22;6085;49.452;8.502;2022-12-18T00:47:56;-7.20;99.90
12049;DHT22;6085;49.452;8.502;2022-12-18T00:51:58;-7.30;99.90
12049;DHT22;6085;49.452;8.502;2022-12-18T00:56:01;-7.30;99.90
12049;DHT22;6085;49.452;8.502;2022-12-18T01:00:04;-7.40;99.90
12049;DHT22;6085;49.452;8.502;2022-12-18T01:04:06;-7.40;99.90
12049;DHT22;6085;49.452;8.502;2022-12-18T01:08:08;-7.40;99.90
12049;DHT22;6085;49.452;8.502;2022-12-18T01:12:11;-7.50;99.90
12049;DHT22;6085;49.452;8.502;2022-12-18T01:16:14;-7.60;99.90
12049;DHT22;6085;49.452;8.502;2022-12-18T01:20:16;-7.70;99.90
12049;DHT22;6085;49.452;8.502;2022-12-18T01:24:18;-7.80;99.90
12049;DHT22;6085;49.452;8.502;2022-12-18T01:28:21;-7.90;99.90
12049;DHT22;6085;49.452;8.502;2022-12-18T01:32:22;-7.90;99.90
12049;DHT22;6085;49.452;8.502;2022-12-18T01:36:26;-7.80;99.90
12049;DHT22;6085;49.452;8.502;2022-12-18T01:40:28;-7.80;99.90
12049;DHT22;6085;49.452;8.502;2022-12-18T01:45:01;-7.90;99.90
12049;DHT22;6085;49.452;8.502;2022-12-18T01:49:03;-7.90;99.90
12049;DHT22;6085;49.452;8.502;2022-12-18T01:53:12;-7.90;99.90
12049;DHT22;6085;49.452;8.502;2022-12-18T01:57:15;-7.90;99.90
12049;DHT22;6085;49.452;8.502;2022-12-18T02:01:20;-7.90;99.90
12049;DHT22;6085;49.452;8.502;2022-12-18T02:05:29;-7.90;99.90
12049;DHT22;6085;49.452;8.502;2022-12-18T02:09:38;-7.90;99.90
12049;DHT22;6085;49.452;8.502;2022-12-18T02:13:46;-7.90;99.90
12049;DHT22;6085;49.452;8.502;2022-12-18T02:17:56;-7.90;99.90
12049;DHT22;6085;49.452;8.502;2022-12-18T02:22:14;-7.90;99.90
12049;DHT22;6085;49.452;8.502;2022-12-18T02:26:23;-7.80;99.90
12049;DHT22;6085;49.452;8.502;2022-12-18T02:30:30;-7.80;99.90
12049;DHT22;6085;49.452;8.502;2022-12-18T02:34:37;-7.80;99.90
12049;DHT22;6085;49.452;8.502;2022-12-18T02:38:40;-7.80;99.90
12049;DHT22;6085;49.452;8.502;2022-12-18T02:42:44;-7.90;99.90
12049;DHT22;6085;49.452;8.502;2022-12-18T02:46:49;-7.90;99.90
12049;DHT22;6085;49.452;8.502;2022-12-18T02:50:55;-7.90;99.90
12049;DHT22;6085;49.452;8.502;2022-12-18T02:55:08;-7.90;99.90
12049;DHT22;6085;49.452;8.502;2022-12-18T02:59:19;-7.90;99.90
12049;DHT22;6085;49.452;8.502;2022-12-18T03:03:25;-8.00;99.90
12049;DHT22;6085;49.452;8.502;2022-12-18T03:07:36;-8.00;99.90
12049;DHT22;6085;49.452;8.502;2022-12-18T03:11:41;-8.00;99.90
12049;DHT22;6085;49.452;8.502;2022-12-18T03:16:03;-8.00;99.90
12049;DHT22;6085;49.452;8.502;2022-12-18T03:20:11;-8.00;99.90
12049;DHT22;6085;49.452;8.502;2022-12-18T03:24:14;-7.90;99.90
12049;DHT22;6085;49.452;8.502;2022-12-18T03:28:20;-7.90;99.90
12049;DHT22;6085;49.452;8.502;2022-12-18T03:32:27;-8.00;99.90
12049;DHT22;6085;49.452;8.502;2022-12-18T03:36:30;-8.00;99.90
12049;DHT22;6085;49.452;8.502;2022-12-18T03:40:44;-8.00;99.90
12049;DHT22;6085;49.452;8.502;2022-12-18T03:44:53;-8.00;99.90
12049;DHT22;6085;49.452;8.502;2022-12-18T03:49:02;-7.90;99.90
12049;DHT22;6085;49.452;8.502;2022-12-18T03:53:18;-7.90;99.90
12049;DHT22;6085;49.452;8.502;2022-12-18T03:57:26;-7.90;99.90
12049;DHT22;6085;49.452;8.502;2022-12-18T04:01:32;-7.90;99.90
12049;DHT22;6085;49.452;8.502;2022-12-18T04:05:36;-7.90;99.90
12049;DHT22;6085;49.452;8.502;2022-12-18T04:09:39;-8.00;99.90
12049;DHT22;6085;49.452;8.502;2022-12-18T04:13:42;-8.00;99.90
12049;DHT22;6085;49.452;8.502;2022-12-18T04:17:48;-7.90;99.90
12049;DHT22;6085;49.452;8.502;2022-12-18T04:21:51;-7.90;99.90
12049;DHT22;6085;49.452;8.502;2022-12-18T04:25:53;-7.90;99.90
12049;DHT22;6085;49.452;8.502;2022-12-18T04:29:55;-7.90;99.90
12049;DHT22;6085;49.452;8.502;2022-12-18T04:33:57;-7.90;99.90
12049;DHT22;6085;49.452;8.502;2022-12-18T04:38:00;-7.80;99.90
12049;DHT22;6085;49.452;8.502;2022-12-18T04:42:01;-7.90;99.90
12049;DHT22;6085;49.452;8.502;2022-12-18T04:46:04;-7.90;99.90
12049;DHT22;6085;49.452;8.502;2022-12-18T04:50:07;-7.90;99.90
12049;DHT22;6085;49.452;8.502;2022-12-18T04:54:10;-7.90;99.90
12049;DHT22;6085;49.452;8.502;2022-12-18T04:58:12;-7.90;99.90
12049;DHT22;6085;49.452;8.502;2022-12-18T05:02:13;-7.80;99.90
12049;DHT22;6085;49.452;8.502;2022-12-18T05:06:15;-7.80;99.90
12049;DHT22;6085;49.452;8.502;2022-12-18T05:10:18;-7.80;99.90
12049;DHT22;6085;49.452;8.502;2022-12-18T05:14:20;-7.70;99.90
12049;DHT22;6085;49.452;8.502;2022-12-18T05:18:22;-7.70;99.90
12049;DHT22;6085;49.452;8.502;2022-12-18T05:22:24;-7.70;99.90
12049;DHT22;6085;49.452;8.502;2022-12-18T05:26:27;-7.80;99.90
12049;DHT22;6085;49.452;8.502;2022-12-18T05:30:29;-7.80;99.90
12049;DHT22;6085;49.452;8.502;2022-12-18T05:34:31;-7.70;99.90
12049;DHT22;6085;49.452;8.502;2022-12-18T05:38:35;-7.70;99.90
12049;DHT22;6085;49.452;8.502;2022-12-18T05:42:38;-7.70;99.90
12049;DHT22;6085;49.452;8.502;2022-12-18T05:46:43;-7.70;99.90
12049;DHT22;6085;49.452;8.502;2022-12-18T05:50:49;-7.80;99.90
12049;DHT22;6085;49.452;8.502;2022-12-18T05:54:51;-7.80;99.90
12049;DHT22;6085;49.452;8.502;2022-12-18T05:58:54;-7.80;99.90
12049;DHT22;6085;49.452;8.502;2022-12-18T06:02:56;-7.80;99.90
12049;DHT22;6085;49.452;8.502;2022-12-18T06:06:58;-7.90;99.90
12049;DHT22;6085;49.452;8.502;2022-12-18T06:11:00;-7.90;99.90
12049;DHT22;6085;49.452;8.502;2022-12-18T06:15:03;-7.90;99.90
12049;DHT22;6085;49.452;8.502;2022-12-18T06:19:05;-7.80;99.90
12049;DHT22;6085;49.452;8.502;2022-12-18T06:23:07;-7.80;99.90
12049;DHT22;6085;49.452;8.502;2022-12-18T06:27:10;-7.80;99.90
12049;DHT22;6085;49.452;8.502;2022-12-18T06:31:13;-7.80;99.90
12049;DHT22;6085;49.452;8.502;2022-12-18T06:35:15;-7.80;99.90
12049;DHT22;6085;49.452;8.502;2022-12-18T06:39:16;-7.90;99.90
12049;DHT22;6085;49.452;8.502;2022-12-18T06:43:18;-7.90;99.90
12049;DHT22;6085;49.452;8.502;2022-12-18T06:47:21;-7.90;99.90
12049;DHT22;6085;49.452;8.502;2022-12-18T06:51:24;-7.90;99.90
12049;DHT22;6085;49.452;8.502;2022-12-18T06:55:26;-8.00;99.90
12049;DHT22;6085;49.452;8.502;2022-12-18T06:59:28;-8.00;99.90
12049;DHT22;6085;49.452;8.502;2022-12-18T07:03:31;-8.10;99.90
12049;DHT22;6085;49.452;8.502;2022-12-18T07:07:33;-8.20;99.90
12049;DHT22;6085;49.452;8.502;2022-12-18T07:11:35;-8.30;99.90
12049;DHT22;6085;49.452;8.502;2022-12-18T07:15:37;-8.30;99.90
12049;DHT22;6085;49.452;8.502;2022-12-18T07:19:40;-8.20;99.90
12049;DHT22;6085;49.452;8.502;2022-12-18T07:23:42;-8.30;99.90
12049;DHT22;6085;49.452;8.502;2022-12-18T07:27:44;-8.20;99.90
12049;DHT22;6085;49.452;8.502;2022-12-18T07:31:46;-8.20;99.90
12049;DHT22;6085;49.452;8.502;2022-12-18T07:35:49;-8.10;99.90
12049;DHT22;6085;49.452;8.502;2022-12-18T07:39:51;-8.00;99.90
12049;DHT22;6085;49.452;8.502;2022-12-18T07:43:52;-8.00;99.90
12049;DHT22;6085;49.452;8.502;2022-12-18T07:47:54;-7.90;99.90
12049;DHT22;6085;49.452;8.502;2022-12-18T07:51:58;-7.90;99.90
12049;DHT22;6085;49.452;8.502;2022-12-18T07:56:02;-7.80;99.90
12049;DHT22;6085;49.452;8.502;2022-12-18T08:00:05;-7.80;99.90
12049;DHT22;6085;49.452;8.502;2022-12-18T08:04:07;-7.80;99.90
12049;DHT22;6085;49.452;8.502;2022-12-18T08:08:11;-7.80;99.90
12049;DHT22;6085;49.452;8.502;2022-12-18T08:12:12;-7.80;99.90
12049;DHT22;6085;49.452;8.502;2022-12-18T08:16:14;-7.80;99.90
12049;DHT22;6085;49.452;8.502;2022-12-18T08:20:16;-7.70;99.90
12049;DHT22;6085;49.452;8.502;2022-12-18T08:24:20;-7.60;99.90
12049;DHT22;6085;49.452;8.502;2022-12-18T08:28:21;-7.50;99.90
12049;DHT22;6085;49.452;8.502;2022-12-18T08:32:24;-7.40;99.90
12049;DHT22;6085;49.452;8.502;2022-12-18T08:36:26;-7.50;99.90
12049;DHT22;6085;49.452;8.502;2022-12-18T08:40:29;-7.40;99.90
12049;DHT22;6085;49.452;8.502;2022-12-18T08:44:31;-7.40;99.90
12049;DHT22;6085;49.452;8.502;2022-12-18T08:48:39;-7.30;99.90
12049;DHT22;6085;49.452;8.502;2022-12-18T08:52:40;-7.20;99.90
12049;DHT22;6085;49.452;8.502;2022-12-18T08:56:43;-7.10;99.90
12049;DHT22;6085;49.452;8.502;2022-12-18T09:00:46;-6.80;99.90
12049;DHT22;6085;49.452;8.502;2022-12-18T09:04:47;-6.70;99.90
12049;DHT22;6085;49.452;8.502;2022-12-18T09:09:10;-6.50;99.90
12049;DHT22;6085;49.452;8.502;2022-12-18T09:13:14;-6.30;99.90
12049;DHT22;6085;49.452;8.502;2022-12-18T09:17:15;-5.90;99.90
12049;DHT22;6085;49.452;8.502;2022-12-18T09:21:19;-5.60;99.90
12049;DHT22;6085;49.452;8.502;2022-12-18T09:25:22;-5.40;99.90
12049;DHT22;6085;49.452;8.502;2022-12-18T09:29:25;-5.30;99.90
12049;DHT22;6085;49.452;8.502;2022-12-18T09:33:27;-5.20;99.90
12049;DHT22;6085;49.452;8.502;2022-12-18T09:37:28;-5.20;99.90
12049;DHT22;6085;49.452;8.502;2022-12-18T09:41:45;-5.10;99.90
12049;DHT22;6085;49.452;8.502;2022-12-18T09:45:52;-5.00;99.90
12049;DHT22;6085;49.452;8.502;2022-12-18T09:49:58;-4.90;99.90
12049;DHT22;6085;49.452;8.502;2022-12-18T09:54:03;-4.90;99.90
12049;DHT22;6085;49.452;8.502;2022-12-18T09:58:12;-4.70;99.90
12049;DHT22;6085;49.452;8.502;2022-12-18T10:02:18;-4.80;99.90
12049;DHT22;6085;49.452;8.502;2022-12-18T10:06:26;-4.90;99.90
12049;DHT22;6085;49.452;8.502;2022-12-18T10:10:37;-4.70;99.90
12049;DHT22;6085;49.452;8.502;2022-12-18T10:14:47;-4.60;99.90
12049;DHT22;6085;49.452;8.502;2022-12-18T10:19:08;-4.20;99.90
12049;DHT22;6085;49.452;8.502;2022-12-18T10:23:18;-3.90;99.90
12049;DHT22;6085;49.452;8.502;2022-12-18T10:27:24;-3.80;99.90
12049;DHT22;6085;49.452;8.502;2022-12-18T10:31:26;-3.60;99.90
12049;DHT22;6085;49.452;8.502;2022-12-18T10:35:30;-3.30;99.90
12049;DHT22;6085;49.452;8.502;2022-12-18T10:39:32;-2.60;99.90
12049;DHT22;6085;49.452;8.502;2022-12-18T10:43:34;-2.10;99.90
12049;DHT22;6085;49.452;8.502;2022-12-18T10:47:42;-1.70;99.90
12049;DHT22;6085;49.452;8.502;2022-12-18T10:51:46;-1.70;99.90
12049;DHT22;6085;49.452;8.502;2022-12-18T10:55:48;-1.80;99.90
12049;DHT22;6085;49.452;8.502;2022-12-18T10:59:52;-1.80;99.90
12049;DHT22;6085;49.452;8.502;2022-12-18T11:04:02;-1.40;99.90
12049;DHT22;6085;49.452;8.502;2022-12-18T11:08:07;-1.10;99.90
12049;DHT22;6085;49.452;8.502;2022-12-18T11:12:22;-1.20;99.90
12049;DHT22;6085;49.452;8.502;2022-12-18T11:16:25;-1.20;99.90
12049;DHT22;6085;49.452;8.502;2022-12-18T11:20:31;-1.40;99.90
12049;DHT22;6085;49.452;8.502;2022-12-18T11:24:35;-1.40;99.90
12049;DHT22;6085;49.452;8.502;2022-12-18T11:28:40;-1.40;99.90
12049;DHT22;6085;49.452;8.502;2022-12-18T11:32:43;-1.50;99.90
12049;DHT22;6085;49.452;8.502;2022-12-18T11:36:46;-1.50;99.90
12049;DHT22;6085;49.452;8.502;2022-12-18T11:40:54;-1.40;99.90
12049;DHT22;6085;49.452;8.502;2022-12-18T11:45:00;-1.20;99.90
12049;DHT22;6085;49.452;8.502;2022-12-18T11:49:07;-0.70;99.90
12049;DHT22;6085;49.452;8.502;2022-12-18T11:53:13;-0.30;99.90
12049;DHT22;6085;49.452;8.502;2022-12-18T11:57:25;-0.30;99.90
12049;DHT22;6085;49.452;8.502;2022-12-18T12:01:39;-0.40;99.90
12049;DHT22;6085;49.452;8.502;2022-12-18T12:05:55;-0.30;99.90
12049;DHT22;6085;49.452;8.502;2022-12-18T12:10:08;-0.10;99.90
12049;DHT22;6085;49.452;8.502;2022-12-18T12:14:27;0.00;99.90
12049;DHT22;6085;49.452;8.502;2022-12-18T12:18:43;-0.20;99.90
12049;DHT22;6085;49.452;8.502;2022-12-18T12:22:55;-0.10;99.90
12049;DHT22;6085;49.452;8.502;2022-12-18T12:27:06;0.00;99.90
12049;DHT22;6085;49.452;8.502;2022-12-18T12:31:25;-0.20;99.90
12049;DHT22;6085;49.452;8.502;2022-12-18T12:35:35;-0.40;99.90
12049;DHT22;6085;49.452;8.502;2022-12-18T12:39:42;-0.40;99.90
12049;DHT22;6085;49.452;8.502;2022-12-18T12:43:47;-0.50;99.90
12049;DHT22;6085;49.452;8.502;2022-12-18T12:47:52;-0.50;99.90
12049;DHT22;6085;49.452;8.502;2022-12-18T12:51:58;-0.50;99.90
12049;DHT22;6085;49.452;8.502;2022-12-18T12:56:01;-0.50;99.90
12049;DHT22;6085;49.452;8.502;2022-12-18T13:00:07;-0.80;99.90
12049;DHT22;6085;49.452;8.502;2022-12-18T13:04:20;-0.90;99.90
12049;DHT22;6085;49.452;8.502;2022-12-18T13:08:24;-0.90;99.90
12049;DHT22;6085;49.452;8.502;2022-12-18T13:12:27;-1.00;99.90
12049;DHT22;6085;49.452;8.502;2022-12-18T13:16:46;-1.10;99.90
12049;DHT22;6085;49.452;8.502;2022-12-18T13:21:00;-1.30;99.90
12049;DHT22;6085;49.452;8.502;2022-12-18T13:25:03;-1.40;99.90
12049;DHT22;6085;49.452;8.502;2022-12-18T13:29:42;-1.40;99.90
12049;DHT22;6085;49.452;8.502;2022-12-18T13:33:45;-1.50;99.90
12049;DHT22;6085;49.452;8.502;2022-12-18T13:37:52;-1.60;99.90
12049;DHT22;6085;49.452;8.502;2022-12-18T13:46:53;-1.70;99.90
12049;DHT22;6085;49.452;8.502;2022-12-18T13:50:58;-1.80;99.90
12049;DHT22;6085;49.452;8.502;2022-12-18T13:55:05;-1.80;99.90
12049;DHT22;6085;49.452;8.502;2022-12-18T13:59:14;-2.00;99.90
12049;DHT22;6085;49.452;8.502;2022-12-18T14:03:19;-2.00;99.90
12049;DHT22;6085;49.452;8.502;2022-12-18T14:07:23;-2.20;99.90
12049;DHT22;6085;49.452;8.502;2022-12-18T14:11:27;-2.20;99.90
12049;DHT22;6085;49.452;8.502;2022-12-18T14:15:32;-2.20;99.90
12049;DHT22;6085;49.452;8.502;2022-12-18T14:19:36;-2.30;99.90
12049;DHT22;6085;49.452;8.502;2022-12-18T14:23:39;-2.30;99.90
12049;DHT22;6085;49.452;8.502;2022-12-18T14:27:44;-2.40;99.90
12049;DHT22;6085;49.452;8.502;2022-12-18T14:31:46;-2.50;99.90
12049;DHT22;6085;49.452;8.502;2022-12-18T14:36:05;-2.50;99.90
12049;DHT22;6085;49.452;8.502;2022-12-18T14:40:13;-2.60;99.90
12049;DHT22;6085;49.452;8.502;2022-12-18T14:44:16;-2.70;99.90
12049;DHT22;6085;49.452;8.502;2022-12-18T14:48:20;-2.80;99.90
12049;DHT22;6085;49.452;8.502;2022-12-18T14:52:27;-2.90;99.90
12049;DHT22;6085;49.452;8.502;2022-12-18T14:56:30;-3.10;99.90
12049;DHT22;6085;49.452;8.502;2022-12-18T15:00:34;-3.20;99.90
12049;DHT22;6085;49.452;8.502;2022-12-18T15:04:42;-3.40;99.90
12049;DHT22;6085;49.452;8.502;2022-12-18T15:08:44;-3.50;99.90
12049;DHT22;6085;49.452;8.502;2022-12-18T15:12:47;-3.60;99.90
12049;DHT22;6085;49.452;8.502;2022-12-18T15:16:53;-3.70;99.90
12049;DHT22;6085;49.452;8.502;2022-12-18T15:20:56;-3.80;99.90
12049;DHT22;6085;49.452;8.502;2022-12-18T15:24:59;-4.00;99.90
12049;DHT22;6085;49.452;8.502;2022-12-18T15:29:01;-4.10;99.90
12049;DHT22;6085;49.452;8.502;2022-12-18T15:33:23;-4.20;99.90
12049;DHT22;6085;49.452;8.502;2022-12-18T15:37:26;-4.30;99.90
12049;DHT22;6085;49.452;8.502;2022-12-18T15:41:28;-4.40;99.90
12049;DHT22;6085;49.452;8.502;2022-12-18T15:45:30;-4.60;99.90
12049;DHT22;6085;49.452;8.502;2022-12-18T15:49:33;-4.70;99.90
12049;DHT22;6085;49.452;8.502;2022-12-18T15:53:35;-4.80;99.90
12049;DHT22;6085;49.452;8.502;2022-12-18T15:57:36;-4.90;99.90
12049;DHT22;6085;49.452;8.502;2022-12-18T16:01:39;-4.90;99.90
12049;DHT22;6085;49.452;8.502;2022-12-18T16:05:42;-4.90;99.90
12049;DHT22;6085;49.452;8.502;2022-12-18T16:09:44;-4.80;99.90
12049;DHT22;6085;49.452;8.502;2022-12-18T16:13:46;-4.70;99.90
12049;DHT22;6085;49.452;8.502;2022-12-18T16:17:48;-4.70;99.90
12049;DHT22;6085;49.452;8.502;2022-12-18T16:21:52;-4.70;99.90
12049;DHT22;6085;49.452;8.502;2022-12-18T16:25:55;-4.60;99.90
12049;DHT22;6085;49.452;8.502;2022-12-18T16:29:57;-4.60;99.90
12049;DHT22;6085;49.452;8.502;2022-12-18T16:34:17;-4.60;99.90
12049;DHT22;6085;49.452;8.502;2022-12-18T16:38:23;-4.60;99.90
12049;DHT22;6085;49.452;8.502;2022-12-18T16:42:25;-4.60;99.90
12049;DHT22;6085;49.452;8.502;2022-12-18T16:46:27;-4.50;99.90
12049;DHT22;6085;49.452;8.502;2022-12-18T16:50:28;-4.50;99.90
12049;DHT22;6085;49.452;8.502;2022-12-18T16:54:32;-4.50;99.90
12049;DHT22;6085;49.452;8.502;2022-12-18T16:58:34;-4.40;99.90
12049;DHT22;6085;49.452;8.502;2022-12-18T17:02:36;-4.40;99.90
12049;DHT22;6085;49.452;8.502;2022-12-18T17:06:40;-4.40;99.90
12049;DHT22;6085;49.452;8.502;2022-12-18T17:10:44;-4.30;99.90
12049;DHT22;6085;49.452;8.502;2022-12-18T17:14:52;-4.30;99.90
12049;DHT22;6085;49.452;8.502;2022-12-18T17:18:54;-4.30;99.90
12049;DHT22;6085;49.452;8.502;2022-12-18T17:22:56;-4.30;99.90
12049;DHT22;6085;49.452;8.502;2022-12-18T17:26:59;-4.30;99.90
12049;DHT22;6085;49.452;8.502;2022-12-18T17:31:01;-4.30;99.90
12049;DHT22;6085;49.452;8.502;2022-12-18T17:35:10;-4.30;99.90
12049;DHT22;6085;49.452;8.502;2022-12-18T17:39:17;-4.40;99.90
12049;DHT22;6085;49.452;8.502;2022-12-18T17:43:21;-4.40;99.90
12049;DHT22;6085;49.452;8.502;2022-12-18T17:47:22;-4.50;99.90
12049;DHT22;6085;49.452;8.502;2022-12-18T17:51:25;-4.40;99.90
12049;DHT22;6085;49.452;8.502;2022-12-18T17:55:27;-4.40;99.90
12049;DHT22;6085;49.452;8.502;2022-12-18T17:59:31;-4.40;99.90
12049;DHT22;6085;49.452;8.502;2022-12-18T18:03:33;-4.40;99.90
12049;DHT22;6085;49.452;8.502;2022-12-18T18:07:37;-4.30;99.90
12049;DHT22;6085;49.452;8.502;2022-12-18T18:11:39;-4.30;99.90
12049;DHT22;6085;49.452;8.502;2022-12-18T18:16:00;-4.20;99.90
12049;DHT22;6085;49.452;8.502;2022-12-18T18:20:03;-4.20;99.90
12049;DHT22;6085;49.452;8.502;2022-12-18T18:24:06;-4.20;99.90
12049;DHT22;6085;49.452;8.502;2022-12-18T18:28:08;-4.20;99.90
12049;DHT22;6085;49.452;8.502;2022-12-18T18:32:14;-4.10;99.90
12049;DHT22;6085;49.452;8.502;2022-12-18T18:36:16;-4.10;99.90
12049;DHT22;6085;49.452;8.502;2022-12-18T18:40:18;-4.10;99.90
12049;DHT22;6085;49.452;8.502;2022-12-18T18:44:21;-4.10;99.90
12049;DHT22;6085;49.452;8.502;2022-12-18T18:48:25;-4.10;99.90
12049;DHT22;6085;49.452;8.502;2022-12-18T18:52:27;-4.10;99.90
12049;DHT22;6085;49.452;8.502;2022-12-18T18:56:29;-4.00;99.90
12049;DHT22;6085;49.452;8.502;2022-12-18T19:00:31;-4.00;99.90
12049;DHT22;6085;49.452;8.502;2022-12-18T19:04:35;-4.00;99.90
12049;DHT22;6085;49.452;8.502;2022-12-18T19:08:37;-4.10;99.90
12049;DHT22;6085;49.452;8.502;2022-12-18T19:12:39;-4.10;99.90
12049;DHT22;6085;49.452;8.502;2022-12-18T19:16:59;-4.00;99.90
12049;DHT22;6085;49.452;8.502;2022-12-18T19:21:04;-4.00;99.90
12049;DHT22;6085;49.452;8.502;2022-12-18T19:25:07;-4.00;99.90
12049;DHT22;6085;49.452;8.502;2022-12-18T19:29:11;-3.90;99.90
12049;DHT22;6085;49.452;8.502;2022-12-18T19:33:14;-3.90;99.90
12049;DHT22;6085;49.452;8.502;2022-12-18T19:37:17;-3.90;99.90
12049;DHT22;6085;49.452;8.502;2022-12-18T19:41:20;-3.80;99.90
12049;DHT22;6085;49.452;8.502;2022-12-18T19:45:22;-3.80;99.90
12049;DHT22;6085;49.452;8.502;2022-12-18T19:49:23;-3.70;99.90
12049;DHT22;6085;49.452;8.502;2022-12-18T19:53:27;-3.70;99.90
12049;DHT22;6085;49.452;8.502;2022-12-18T19:57:28;-3.60;99.90
12049;DHT22;6085;49.452;8.502;2022-12-18T20:01:31;-3.60;99.90
12049;DHT22;6085;49.452;8.502;2022-12-18T20:05:33;-3.60;99.90
12049;DHT22;6085;49.452;8.502;2022-12-18T20:09:37;-3.60;99.90
12049;DHT22;6085;49.452;8.502;2022-12-18T20:13:39;-3.60;99.90
12049;DHT22;6085;49.452;8.502;2022-12-18T20:17:41;-3.70;99.90
12049;DHT22;6085;49.452;8.502;2022-12-18T20:21:43;-3.70;99.90
12049;DHT22;6085;49.452;8.502;2022-12-18T20:25:46;-3.70;99.90
12049;DHT22;6085;49.452;8.502;2022-12-18T20:29:47;-3.70;99.90
12049;DHT22;6085;49.452;8.502;2022-12-18T20:33:50;-3.70;99.90
12049;DHT22;6085;49.452;8.502;2022-12-18T20:37:52;-3.70;99.90
12049;DHT22;6085;49.452;8.502;2022-12-18T20:41:56;-3.70;99.90
12049;DHT22;6085;49.452;8.502;2022-12-18T20:46:01;-3.70;99.90
12049;DHT22;6085;49.452;8.502;2022-12-18T20:50:04;-3.70;99.90
12049;DHT22;6085;49.452;8.502;2022-12-18T20:54:06;-3.80;99.90
12049;DHT22;6085;49.452;8.502;2022-12-18T20:58:09;-3.80;99.90
12049;DHT22;6085;49.452;8.502;2022-12-18T21:02:12;-3.80;99.90
12049;DHT22;6085;49.452;8.502;2022-12-18T21:06:15;-3.70;99.90
12049;DHT22;6085;49.452;8.502;2022-12-18T21:10:17;-3.70;99.90
12049;DHT22;6085;49.452;8.502;2022-12-18T21:14:23;-3.70;99.90
12049;DHT22;6085;49.452;8.502;2022-12-18T21:18:25;-3.70;99.90
12049;DHT22;6085;49.452;8.502;2022-12-18T21:22:27;-3.70;99.90
12049;DHT22;6085;49.452;8.502;2022-12-18T21:26:29;-3.60;99.90
12049;DHT22;6085;49.452;8.502;2022-12-18T21:30:33;-3.50;99.90
12049;DHT22;6085;49.452;8.502;2022-12-18T21:34:34;-3.40;99.90
12049;DHT22;6085;49.452;8.502;2022-12-18T21:38:36;-3.40;99.90
12049;DHT22;6085;49.452;8.502;2022-12-18T21:42:38;-3.30;99.90
12049;DHT22;6085;49.452;8.502;2022-12-18T21:46:58;-3.40;99.90
12049;DHT22;6085;49.452;8.502;2022-12-18T21:51:00;-3.40;99.90
12049;DHT22;6085;49.452;8.502;2022-12-18T21:55:03;-3.50;99.90
12049;DHT22;6085;49.452;8.502;2022-12-18T21:59:05;-3.50;99.90
12049;DHT22;6085;49.452;8.502;2022-12-18T22:03:08;-3.50;99.90
12049;DHT22;6085;49.452;8.502;2022-12-18T22:07:10;-3.50;99.90
12049;DHT22;6085;49.452;8.502;2022-12-18T22:11:12;-3.60;99.90
12049;DHT22;6085;49.452;8.502;2022-12-18T22:15:14;-3.70;99.90
12049;DHT22;6085;49.452;8.502;2022-12-18T22:19:17;-3.70;99.90
12049;DHT22;6085;49.452;8.502;2022-12-18T22:23:20;-3.70;99.90
12049;DHT22;6085;49.452;8.502;2022-12-18T22:27:21;-3.60;99.90
12049;DHT22;6085;49.452;8.502;2022-12-18T22:31:23;-3.50;99.90
12049;DHT22;6085;49.452;8.502;2022-12-18T22:35:25;-3.50;99.90
12049;DHT22;6085;49.452;8.502;2022-12-18T22:39:29;-3.40;99.90
12049;DHT22;6085;49.452;8.502;2022-12-18T22:43:31;-3.40;99.90
12049;DHT22;6085;49.452;8.502;2022-12-18T22:47:32;-3.40;99.90
12049;DHT22;6085;49.452;8.502;2022-12-18T22:51:36;-3.30;99.90
12049;DHT22;6085;49.452;8.502;2022-12-18T22:55:37;-3.30;99.90
12049;DHT22;6085;49.452;8.502;2022-12-18T22:59:39;-3.30;99.90
12049;DHT22;6085;49.452;8.502;2022-12-18T23:03:41;-3.30;99.90
12049;DHT22;6085;49.452;8.502;2022-12-18T23:07:44;-3.30;99.90
12049;DHT22;6085;49.452;8.502;2022-12-18T23:11:49;-3.30;99.90
12049;DHT22;6085;49.452;8.502;2022-12-18T23:15:50;-3.30;99.90
12049;DHT22;6085;49.452;8.502;2022-12-18T23:19:52;-3.30;99.90
12049;DHT22;6085;49.452;8.502;2022-12-18T23:23:56;-3.30;99.90
12049;DHT22;6085;49.452;8.502;2022-12-18T23:27:57;-3.20;99.90
12049;DHT22;6085;49.452;8.502;2022-12-18T23:31:59;-3.20;99.90
12049;DHT22;6085;49.452;8.502;2022-12-18T23:36:02;-3.10;99.90
12049;DHT22;6085;49.452;8.502;2022-12-18T23:40:08;-3.10;99.90
12049;DHT22;6085;49.452;8.502;2022-12-18T23:44:10;-3.10;99.90
12049;DHT22;6085;49.452;8.502;2022-12-18T23:48:12;-3.00;99.90
12049;DHT22;6085;49.452;8.502;2022-12-18T23:52:14;-3.00;99.90
12049;DHT22;6085;49.452;8.502;2022-12-18T23:56:17;-2.90;99.90
